Aviation Digital Data Service (ADDS)

Output produced by METARs form (2056 UTC 19 January 2019)
found at http://www.aviationweather.gov/metar/data/
 
KTUS 191720Z 1918/2018 08007KT P6SM SCT250 
     FM200600 12010KT P6SM BKN250